sensor_id;sensor_type;location;lat;lon;timestamp;temperature;humidity
10390;DHT22;5241;47.830;12.972;2023-02-02T00:01:10;3.50;99.90
10390;DHT22;5241;47.830;12.972;2023-02-02T00:03:35;3.50;99.90
10390;DHT22;5241;47.830;12.972;2023-02-02T00:06:02;3.50;99.90
10390;DHT22;5241;47.830;12.972;2023-02-02T00:08:28;3.40;99.90
10390;DHT22;5241;47.830;12.972;2023-02-02T00:10:54;3.50;99.90
10390;DHT22;5241;47.830;12.972;2023-02-02T00:13:19;3.40;99.90
10390;DHT22;5241;47.830;12.972;2023-02-02T00:15:45;3.40;99.90
10390;DHT22;5241;47.830;12.972;2023-02-02T00:18:10;3.40;99.90
10390;DHT22;5241;47.830;12.972;2023-02-02T00:20:36;3.40;99.90
10390;DHT22;5241;47.830;12.972;2023-02-02T00:23:02;3.40;99.90
10390;DHT22;5241;47.830;12.972;2023-02-02T00:25:28;3.40;99.90
10390;DHT22;5241;47.830;12.972;2023-02-02T00:27:54;3.40;99.90
10390;DHT22;5241;47.830;12.972;2023-02-02T00:30:20;3.40;99.90
10390;DHT22;5241;47.830;12.972;2023-02-02T00:32:46;3.40;99.90
10390;DHT22;5241;47.830;12.972;2023-02-02T00:35:13;3.40;99.90
10390;DHT22;5241;47.830;12.972;2023-02-02T00:37:39;3.40;99.90
10390;DHT22;5241;47.830;12.972;2023-02-02T00:40:05;3.40;99.90
10390;DHT22;5241;47.830;12.972;2023-02-02T00:42:31;3.40;99.90
10390;DHT22;5241;47.830;12.972;2023-02-02T00:44:57;3.50;99.90
10390;DHT22;5241;47.830;12.972;2023-02-02T00:47:44;3.60;99.90
10390;DHT22;5241;47.830;12.972;2023-02-02T00:50:12;3.60;99.90
10390;DHT22;5241;47.830;12.972;2023-02-02T00:52:38;3.60;99.90
10390;DHT22;5241;47.830;12.972;2023-02-02T00:55:04;3.60;99.90
10390;DHT22;5241;47.830;12.972;2023-02-02T00:57:30;3.60;99.90
10390;DHT22;5241;47.830;12.972;2023-02-02T00:59:56;3.60;99.90
10390;DHT22;5241;47.830;12.972;2023-02-02T01:02:21;3.60;99.90
10390;DHT22;5241;47.830;12.972;2023-02-02T01:04:47;3.50;99.90
10390;DHT22;5241;47.830;12.972;2023-02-02T01:07:13;3.50;99.90
10390;DHT22;5241;47.830;12.972;2023-02-02T01:09:38;3.50;99.90
10390;DHT22;5241;47.830;12.972;2023-02-02T01:12:04;3.50;99.90
10390;DHT22;5241;47.830;12.972;2023-02-02T01:14:30;3.60;99.90
10390;DHT22;5241;47.830;12.972;2023-02-02T01:16:55;3.60;99.90
10390;DHT22;5241;47.830;12.972;2023-02-02T01:19:21;3.60;99.90
10390;DHT22;5241;47.830;12.972;2023-02-02T01:21:46;3.60;99.90
10390;DHT22;5241;47.830;12.972;2023-02-02T01:24:12;3.60;99.90
10390;DHT22;5241;47.830;12.972;2023-02-02T01:26:37;3.60;99.90
10390;DHT22;5241;47.830;12.972;2023-02-02T01:29:03;3.60;99.90
10390;DHT22;5241;47.830;12.972;2023-02-02T01:31:28;3.60;99.90
10390;DHT22;5241;47.830;12.972;2023-02-02T01:33:54;3.60;99.90
10390;DHT22;5241;47.830;12.972;2023-02-02T01:36:21;3.60;99.90
10390;DHT22;5241;47.830;12.972;2023-02-02T01:38:48;3.60;99.90
10390;DHT22;5241;47.830;12.972;2023-02-02T01:41:21;3.60;99.90
10390;DHT22;5241;47.830;12.972;2023-02-02T01:46:15;3.60;99.90
10390;DHT22;5241;47.830;12.972;2023-02-02T01:48:47;3.60;99.90
10390;DHT22;5241;47.830;12.972;2023-02-02T01:51:16;3.60;99.90
10390;DHT22;5241;47.830;12.972;2023-02-02T01:53:44;3.60;99.90
10390;DHT22;5241;47.830;12.972;2023-02-02T01:56:14;3.70;99.90
10390;DHT22;5241;47.830;12.972;2023-02-02T01:58:42;3.60;99.90
10390;DHT22;5241;47.830;12.972;2023-02-02T02:01:08;3.70;99.90
10390;DHT22;5241;47.830;12.972;2023-02-02T02:03:35;3.70;99.90
10390;DHT22;5241;47.830;12.972;2023-02-02T02:06:07;3.80;99.90
10390;DHT22;5241;47.830;12.972;2023-02-02T02:08:41;3.90;99.90
10390;DHT22;5241;47.830;12.972;2023-02-02T02:11:08;3.90;99.90
10390;DHT22;5241;47.830;12.972;2023-02-02T02:13:36;3.90;99.90
10390;DHT22;5241;47.830;12.972;2023-02-02T02:16:49;4.00;99.90
10390;DHT22;5241;47.830;12.972;2023-02-02T02:34:49;4.00;99.90
10390;DHT22;5241;47.830;12.972;2023-02-02T02:37:35;4.10;99.90
10390;DHT22;5241;47.830;12.972;2023-02-02T02:40:16;4.00;99.90
10390;DHT22;5241;47.830;12.972;2023-02-02T02:42:48;4.00;99.90
10390;DHT22;5241;47.830;12.972;2023-02-02T02:45:16;4.00;99.90
10390;DHT22;5241;47.830;12.972;2023-02-02T02:47:42;4.10;99.90
10390;DHT22;5241;47.830;12.972;2023-02-02T02:50:09;4.10;99.90
10390;DHT22;5241;47.830;12.972;2023-02-02T02:52:35;4.10;99.90
10390;DHT22;5241;47.830;12.972;2023-02-02T02:55:03;4.20;99.90
10390;DHT22;5241;47.830;12.972;2023-02-02T03:02:59;4.40;99.90
10390;DHT22;5241;47.830;12.972;2023-02-02T03:06:00;4.40;99.90
10390;DHT22;5241;47.830;12.972;2023-02-02T03:08:36;4.40;99.90
10390;DHT22;5241;47.830;12.972;2023-02-02T03:11:07;4.40;99.90
10390;DHT22;5241;47.830;12.972;2023-02-02T03:13:34;4.50;99.90
10390;DHT22;5241;47.830;12.972;2023-02-02T03:16:00;4.50;99.90
10390;DHT22;5241;47.830;12.972;2023-02-02T03:18:30;4.40;99.90
10390;DHT22;5241;47.830;12.972;2023-02-02T03:20:57;4.40;99.90
10390;DHT22;5241;47.830;12.972;2023-02-02T03:23:22;4.40;99.90
10390;DHT22;5241;47.830;12.972;2023-02-02T03:25:48;4.30;99.90
10390;DHT22;5241;47.830;12.972;2023-02-02T03:28:15;4.20;99.90
10390;DHT22;5241;47.830;12.972;2023-02-02T03:30:42;4.20;99.90
10390;DHT22;5241;47.830;12.972;2023-02-02T03:33:09;4.20;99.90
10390;DHT22;5241;47.830;12.972;2023-02-02T03:35:35;4.30;99.90
10390;DHT22;5241;47.830;12.972;2023-02-02T03:38:00;4.30;99.90
10390;DHT22;5241;47.830;12.972;2023-02-02T03:40:27;4.40;99.90
10390;DHT22;5241;47.830;12.972;2023-02-02T03:42:53;4.30;99.90
10390;DHT22;5241;47.830;12.972;2023-02-02T03:45:18;4.40;99.90
10390;DHT22;5241;47.830;12.972;2023-02-02T03:47:44;4.40;99.90
10390;DHT22;5241;47.830;12.972;2023-02-02T03:50:10;4.40;99.90
10390;DHT22;5241;47.830;12.972;2023-02-02T03:52:35;4.40;99.90
10390;DHT22;5241;47.830;12.972;2023-02-02T03:55:01;4.40;99.90
10390;DHT22;5241;47.830;12.972;2023-02-02T03:57:26;4.50;99.90
10390;DHT22;5241;47.830;12.972;2023-02-02T03:59:52;4.50;99.90
10390;DHT22;5241;47.830;12.972;2023-02-02T04:02:18;4.50;99.90
10390;DHT22;5241;47.830;12.972;2023-02-02T04:04:43;4.50;99.90
10390;DHT22;5241;47.830;12.972;2023-02-02T04:07:09;4.50;99.90
10390;DHT22;5241;47.830;12.972;2023-02-02T04:09:34;4.50;99.90
10390;DHT22;5241;47.830;12.972;2023-02-02T04:12:00;4.50;99.90
10390;DHT22;5241;47.830;12.972;2023-02-02T04:14:26;4.60;99.90
10390;DHT22;5241;47.830;12.972;2023-02-02T04:16:51;4.60;99.90
10390;DHT22;5241;47.830;12.972;2023-02-02T04:19:17;4.70;99.90
10390;DHT22;5241;47.830;12.972;2023-02-02T04:21:42;4.70;99.90
10390;DHT22;5241;47.830;12.972;2023-02-02T04:24:12;4.70;99.90
10390;DHT22;5241;47.830;12.972;2023-02-02T04:26:38;4.80;99.90
10390;DHT22;5241;47.830;12.972;2023-02-02T04:29:03;4.70;99.90
10390;DHT22;5241;47.830;12.972;2023-02-02T04:31:29;4.60;99.90
10390;DHT22;5241;47.830;12.972;2023-02-02T04:33:55;4.60;99.90
10390;DHT22;5241;47.830;12.972;2023-02-02T04:36:21;4.50;99.90
10390;DHT22;5241;47.830;12.972;2023-02-02T04:38:51;4.40;99.90
10390;DHT22;5241;47.830;12.972;2023-02-02T04:41:17;4.40;99.90
10390;DHT22;5241;47.830;12.972;2023-02-02T04:43:46;4.40;99.90
10390;DHT22;5241;47.830;12.972;2023-02-02T04:46:12;4.50;99.90
10390;DHT22;5241;47.830;12.972;2023-02-02T04:48:38;4.40;99.90
10390;DHT22;5241;47.830;12.972;2023-02-02T04:51:11;4.50;99.90
10390;DHT22;5241;47.830;12.972;2023-02-02T04:53:38;4.60;99.90
10390;DHT22;5241;47.830;12.972;2023-02-02T04:56:08;4.60;99.90
10390;DHT22;5241;47.830;12.972;2023-02-02T04:58:34;4.70;99.90
10390;DHT22;5241;47.830;12.972;2023-02-02T05:01:00;4.70;99.90
10390;DHT22;5241;47.830;12.972;2023-02-02T05:03:25;4.70;99.90
10390;DHT22;5241;47.830;12.972;2023-02-02T05:06:00;4.80;99.90
10390;DHT22;5241;47.830;12.972;2023-02-02T05:08:25;4.80;99.90
10390;DHT22;5241;47.830;12.972;2023-02-02T05:10:51;4.90;99.90
10390;DHT22;5241;47.830;12.972;2023-02-02T05:13:16;4.80;99.90
10390;DHT22;5241;47.830;12.972;2023-02-02T05:15:42;4.80;99.90
10390;DHT22;5241;47.830;12.972;2023-02-02T05:18:07;4.80;99.90
10390;DHT22;5241;47.830;12.972;2023-02-02T05:20:33;4.80;99.90
10390;DHT22;5241;47.830;12.972;2023-02-02T05:22:58;4.90;99.90
10390;DHT22;5241;47.830;12.972;2023-02-02T05:25:24;5.00;99.90
10390;DHT22;5241;47.830;12.972;2023-02-02T05:27:49;5.00;99.90
10390;DHT22;5241;47.830;12.972;2023-02-02T05:30:15;5.00;99.90
10390;DHT22;5241;47.830;12.972;2023-02-02T05:32:41;5.00;99.90
10390;DHT22;5241;47.830;12.972;2023-02-02T05:35:07;5.00;99.90
10390;DHT22;5241;47.830;12.972;2023-02-02T05:37:33;4.90;99.90
10390;DHT22;5241;47.830;12.972;2023-02-02T05:39:58;4.90;99.90
10390;DHT22;5241;47.830;12.972;2023-02-02T05:42:24;4.80;99.90
10390;DHT22;5241;47.830;12.972;2023-02-02T05:44:51;4.70;99.90
10390;DHT22;5241;47.830;12.972;2023-02-02T05:47:16;4.70;99.90
10390;DHT22;5241;47.830;12.972;2023-02-02T05:49:42;4.60;99.90
10390;DHT22;5241;47.830;12.972;2023-02-02T05:52:13;4.60;99.90
10390;DHT22;5241;47.830;12.972;2023-02-02T05:54:40;4.60;99.90
10390;DHT22;5241;47.830;12.972;2023-02-02T05:57:05;4.60;99.90
10390;DHT22;5241;47.830;12.972;2023-02-02T05:59:31;4.60;99.90
10390;DHT22;5241;47.830;12.972;2023-02-02T06:01:57;4.60;99.90
10390;DHT22;5241;47.830;12.972;2023-02-02T06:04:22;4.70;99.90
10390;DHT22;5241;47.830;12.972;2023-02-02T06:06:48;4.60;99.90
10390;DHT22;5241;47.830;12.972;2023-02-02T06:09:13;4.50;99.90
10390;DHT22;5241;47.830;12.972;2023-02-02T06:11:39;4.30;99.90
10390;DHT22;5241;47.830;12.972;2023-02-02T06:14:05;4.30;99.90
10390;DHT22;5241;47.830;12.972;2023-02-02T06:16:31;4.20;99.90
10390;DHT22;5241;47.830;12.972;2023-02-02T06:18:56;4.10;99.90
10390;DHT22;5241;47.830;12.972;2023-02-02T06:21:22;4.10;99.90
10390;DHT22;5241;47.830;12.972;2023-02-02T06:23:49;4.10;99.90
10390;DHT22;5241;47.830;12.972;2023-02-02T06:26:15;4.00;99.90
10390;DHT22;5241;47.830;12.972;2023-02-02T06:28:42;4.00;99.90
10390;DHT22;5241;47.830;12.972;2023-02-02T06:31:09;4.00;99.90
10390;DHT22;5241;47.830;12.972;2023-02-02T06:33:35;4.00;99.90
10390;DHT22;5241;47.830;12.972;2023-02-02T06:36:05;4.10;99.90
10390;DHT22;5241;47.830;12.972;2023-02-02T06:38:31;4.10;99.90
10390;DHT22;5241;47.830;12.972;2023-02-02T06:41:01;4.20;99.90
10390;DHT22;5241;47.830;12.972;2023-02-02T06:43:27;4.20;99.90
10390;DHT22;5241;47.830;12.972;2023-02-02T06:45:53;4.20;99.90
10390;DHT22;5241;47.830;12.972;2023-02-02T06:48:19;4.20;99.90
10390;DHT22;5241;47.830;12.972;2023-02-02T06:50:44;4.20;99.90
10390;DHT22;5241;47.830;12.972;2023-02-02T06:53:10;4.20;99.90
10390;DHT22;5241;47.830;12.972;2023-02-02T06:55:35;4.20;99.90
10390;DHT22;5241;47.830;12.972;2023-02-02T06:58:01;4.20;99.90
10390;DHT22;5241;47.830;12.972;2023-02-02T07:00:28;4.30;99.90
10390;DHT22;5241;47.830;12.972;2023-02-02T07:02:54;4.20;99.90
10390;DHT22;5241;47.830;12.972;2023-02-02T07:05:19;4.30;99.90
10390;DHT22;5241;47.830;12.972;2023-02-02T07:07:48;4.30;99.90
10390;DHT22;5241;47.830;12.972;2023-02-02T07:10:14;4.30;99.90
10390;DHT22;5241;47.830;12.972;2023-02-02T07:12:40;4.20;99.90
10390;DHT22;5241;47.830;12.972;2023-02-02T07:15:06;4.30;99.90
10390;DHT22;5241;47.830;12.972;2023-02-02T07:17:32;4.20;99.90
10390;DHT22;5241;47.830;12.972;2023-02-02T07:19:57;4.20;99.90
10390;DHT22;5241;47.830;12.972;2023-02-02T07:22:23;4.20;99.90
10390;DHT22;5241;47.830;12.972;2023-02-02T07:24:48;4.20;99.90
10390;DHT22;5241;47.830;12.972;2023-02-02T07:27:14;4.20;99.90
10390;DHT22;5241;47.830;12.972;2023-02-02T07:29:39;4.20;99.90
10390;DHT22;5241;47.830;12.972;2023-02-02T07:32:05;4.10;99.90
10390;DHT22;5241;47.830;12.972;2023-02-02T07:34:30;4.10;99.90
10390;DHT22;5241;47.830;12.972;2023-02-02T07:36:56;4.10;99.90
10390;DHT22;5241;47.830;12.972;2023-02-02T07:39:22;4.20;99.90
10390;DHT22;5241;47.830;12.972;2023-02-02T07:41:47;4.10;99.90
10390;DHT22;5241;47.830;12.972;2023-02-02T07:44:13;4.20;99.90
10390;DHT22;5241;47.830;12.972;2023-02-02T07:46:41;4.30;99.90
10390;DHT22;5241;47.830;12.972;2023-02-02T07:49:06;4.30;99.90
10390;DHT22;5241;47.830;12.972;2023-02-02T07:51:32;4.30;99.90
10390;DHT22;5241;47.830;12.972;2023-02-02T07:53:58;4.30;99.90
10390;DHT22;5241;47.830;12.972;2023-02-02T07:56:25;4.30;99.90
10390;DHT22;5241;47.830;12.972;2023-02-02T07:58:55;4.40;99.90
10390;DHT22;5241;47.830;12.972;2023-02-02T08:01:21;4.50;99.90
10390;DHT22;5241;47.830;12.972;2023-02-02T08:03:48;4.50;99.90
10390;DHT22;5241;47.830;12.972;2023-02-02T08:06:18;4.50;99.90
10390;DHT22;5241;47.830;12.972;2023-02-02T08:08:44;4.60;99.90
10390;DHT22;5241;47.830;12.972;2023-02-02T08:11:12;4.60;99.90
10390;DHT22;5241;47.830;12.972;2023-02-02T08:13:39;4.70;99.90
10390;DHT22;5241;47.830;12.972;2023-02-02T08:16:06;4.70;99.90
10390;DHT22;5241;47.830;12.972;2023-02-02T08:18:33;4.70;99.90
10390;DHT22;5241;47.830;12.972;2023-02-02T08:21:00;4.70;99.90
10390;DHT22;5241;47.830;12.972;2023-02-02T08:23:26;4.70;99.90
10390;DHT22;5241;47.830;12.972;2023-02-02T08:25:52;4.70;99.90
10390;DHT22;5241;47.830;12.972;2023-02-02T08:28:18;4.70;99.90
10390;DHT22;5241;47.830;12.972;2023-02-02T08:30:44;4.70;99.90
10390;DHT22;5241;47.830;12.972;2023-02-02T08:33:11;4.80;99.90
10390;DHT22;5241;47.830;12.972;2023-02-02T08:35:41;4.80;99.90
10390;DHT22;5241;47.830;12.972;2023-02-02T08:38:07;4.80;99.90
10390;DHT22;5241;47.830;12.972;2023-02-02T08:40:32;4.80;99.90
10390;DHT22;5241;47.830;12.972;2023-02-02T08:42:58;4.90;99.90
10390;DHT22;5241;47.830;12.972;2023-02-02T08:45:24;4.90;99.90
10390;DHT22;5241;47.830;12.972;2023-02-02T08:47:50;4.90;99.90
10390;DHT22;5241;47.830;12.972;2023-02-02T08:50:16;5.00;99.90
10390;DHT22;5241;47.830;12.972;2023-02-02T08:52:42;5.00;99.90
10390;DHT22;5241;47.830;12.972;2023-02-02T08:55:08;5.10;99.90
10390;DHT22;5241;47.830;12.972;2023-02-02T08:57:34;5.10;99.90
10390;DHT22;5241;47.830;12.972;2023-02-02T08:59:59;5.20;99.90
10390;DHT22;5241;47.830;12.972;2023-02-02T09:02:25;5.30;99.90
10390;DHT22;5241;47.830;12.972;2023-02-02T09:04:50;5.30;99.90
10390;DHT22;5241;47.830;12.972;2023-02-02T09:07:16;5.30;99.90
10390;DHT22;5241;47.830;12.972;2023-02-02T09:09:41;5.40;99.90
10390;DHT22;5241;47.830;12.972;2023-02-02T09:12:07;5.40;99.90
10390;DHT22;5241;47.830;12.972;2023-02-02T09:14:32;5.40;99.90
10390;DHT22;5241;47.830;12.972;2023-02-02T09:16:58;5.40;99.90
10390;DHT22;5241;47.830;12.972;2023-02-02T09:19:24;5.50;99.90
10390;DHT22;5241;47.830;12.972;2023-02-02T09:21:49;5.50;99.90
10390;DHT22;5241;47.830;12.972;2023-02-02T09:24:15;5.60;99.90
10390;DHT22;5241;47.830;12.972;2023-02-02T09:26:42;5.60;99.90
10390;DHT22;5241;47.830;12.972;2023-02-02T09:29:12;5.60;99.90
10390;DHT22;5241;47.830;12.972;2023-02-02T09:31:38;5.70;99.90
10390;DHT22;5241;47.830;12.972;2023-02-02T09:34:07;5.70;99.90
10390;DHT22;5241;47.830;12.972;2023-02-02T09:36:33;5.80;99.90
10390;DHT22;5241;47.830;12.972;2023-02-02T09:38:59;5.80;99.90
10390;DHT22;5241;47.830;12.972;2023-02-02T09:57:55;5.90;99.90
10390;DHT22;5241;47.830;12.972;2023-02-02T10:01:11;5.80;99.90
10390;DHT22;5241;47.830;12.972;2023-02-02T10:09:15;5.50;99.90
10390;DHT22;5241;47.830;12.972;2023-02-02T10:11:49;5.40;99.90
10390;DHT22;5241;47.830;12.972;2023-02-02T10:14:45;5.40;99.90
10390;DHT22;5241;47.830;12.972;2023-02-02T10:19:46;5.30;99.90
10390;DHT22;5241;47.830;12.972;2023-02-02T10:22:16;5.20;99.90
10390;DHT22;5241;47.830;12.972;2023-02-02T10:24:44;5.20;99.90
10390;DHT22;5241;47.830;12.972;2023-02-02T10:27:30;5.20;99.90
10390;DHT22;5241;47.830;12.972;2023-02-02T10:30:00;5.20;99.90
10390;DHT22;5241;47.830;12.972;2023-02-02T10:32:59;5.20;99.90
10390;DHT22;5241;47.830;12.972;2023-02-02T10:35:44;5.20;99.90
10390;DHT22;5241;47.830;12.972;2023-02-02T10:38:21;5.10;99.90
10390;DHT22;5241;47.830;12.972;2023-02-02T10:41:01;5.00;99.90
10390;DHT22;5241;47.830;12.972;2023-02-02T10:46:33;4.90;99.90
10390;DHT22;5241;47.830;12.972;2023-02-02T10:51:53;4.90;99.90
10390;DHT22;5241;47.830;12.972;2023-02-02T10:56:57;4.80;99.90
10390;DHT22;5241;47.830;12.972;2023-02-02T10:59:30;4.70;99.90
10390;DHT22;5241;47.830;12.972;2023-02-02T11:01:56;4.70;99.90
10390;DHT22;5241;47.830;12.972;2023-02-02T11:04:23;4.70;99.90
10390;DHT22;5241;47.830;12.972;2023-02-02T11:07:08;4.70;99.90
10390;DHT22;5241;47.830;12.972;2023-02-02T11:09:39;4.60;99.90
10390;DHT22;5241;47.830;12.972;2023-02-02T11:12:31;4.70;99.90
10390;DHT22;5241;47.830;12.972;2023-02-02T11:15:05;4.60;99.90
10390;DHT22;5241;47.830;12.972;2023-02-02T11:17:32;4.60;99.90
10390;DHT22;5241;47.830;12.972;2023-02-02T11:19:59;4.70;99.90
10390;DHT22;5241;47.830;12.972;2023-02-02T11:22:31;4.70;99.90
10390;DHT22;5241;47.830;12.972;2023-02-02T11:25:01;4.70;99.90
10390;DHT22;5241;47.830;12.972;2023-02-02T11:27:39;4.60;99.90
10390;DHT22;5241;47.830;12.972;2023-02-02T11:30:23;4.60;99.90
10390;DHT22;5241;47.830;12.972;2023-02-02T11:32:51;4.60;99.90
10390;DHT22;5241;47.830;12.972;2023-02-02T11:35:20;4.60;99.90
10390;DHT22;5241;47.830;12.972;2023-02-02T11:37:59;4.60;99.90
10390;DHT22;5241;47.830;12.972;2023-02-02T11:40:31;4.60;99.90
10390;DHT22;5241;47.830;12.972;2023-02-02T11:43:01;4.60;99.90
10390;DHT22;5241;47.830;12.972;2023-02-02T11:45:36;4.60;99.90
10390;DHT22;5241;47.830;12.972;2023-02-02T11:50:44;4.70;99.90
10390;DHT22;5241;47.830;12.972;2023-02-02T11:53:35;4.70;99.90
10390;DHT22;5241;47.830;12.972;2023-02-02T11:56:05;4.70;99.90
10390;DHT22;5241;47.830;12.972;2023-02-02T11:58:48;4.70;99.90
10390;DHT22;5241;47.830;12.972;2023-02-02T12:01:26;4.70;99.90
10390;DHT22;5241;47.830;12.972;2023-02-02T12:03:58;4.70;99.90
10390;DHT22;5241;47.830;12.972;2023-02-02T12:06:37;4.70;99.90
10390;DHT22;5241;47.830;12.972;2023-02-02T12:09:14;4.70;99.90
10390;DHT22;5241;47.830;12.972;2023-02-02T12:12:35;4.70;99.90
10390;DHT22;5241;47.830;12.972;2023-02-02T12:17:20;4.80;99.90
10390;DHT22;5241;47.830;12.972;2023-02-02T12:19:56;4.80;99.90
10390;DHT22;5241;47.830;12.972;2023-02-02T12:22:46;4.80;99.90
10390;DHT22;5241;47.830;12.972;2023-02-02T12:25:43;4.90;99.90
10390;DHT22;5241;47.830;12.972;2023-02-02T12:30:42;4.90;99.90
10390;DHT22;5241;47.830;12.972;2023-02-02T12:53:19;5.00;99.90
10390;DHT22;5241;47.830;12.972;2023-02-02T12:56:37;4.90;99.90
10390;DHT22;5241;47.830;12.972;2023-02-02T13:02:07;4.90;99.90
10390;DHT22;5241;47.830;12.972;2023-02-02T13:07:38;4.80;99.90
10390;DHT22;5241;47.830;12.972;2023-02-02T13:12:55;4.80;99.90
10390;DHT22;5241;47.830;12.972;2023-02-02T13:15:27;4.80;99.90
10390;DHT22;5241;47.830;12.972;2023-02-02T13:17:56;4.80;99.90
10390;DHT22;5241;47.830;12.972;2023-02-02T13:20:38;4.80;99.90
10390;DHT22;5241;47.830;12.972;2023-02-02T13:26:13;4.70;99.90
10390;DHT22;5241;47.830;12.972;2023-02-02T13:31:26;4.70;99.90
10390;DHT22;5241;47.830;12.972;2023-02-02T13:34:03;4.70;99.90
10390;DHT22;5241;47.830;12.972;2023-02-02T13:36:31;4.70;99.90
10390;DHT22;5241;47.830;12.972;2023-02-02T13:39:22;4.70;99.90
10390;DHT22;5241;47.830;12.972;2023-02-02T13:41:51;4.70;99.90
10390;DHT22;5241;47.830;12.972;2023-02-02T13:44:23;4.70;99.90
10390;DHT22;5241;47.830;12.972;2023-02-02T13:47:10;4.60;99.90
10390;DHT22;5241;47.830;12.972;2023-02-02T13:49:43;4.60;99.90
10390;DHT22;5241;47.830;12.972;2023-02-02T14:01:14;4.60;99.90
10390;DHT22;5241;47.830;12.972;2023-02-02T14:03:42;4.50;99.90
10390;DHT22;5241;47.830;12.972;2023-02-02T14:06:17;4.50;99.90
10390;DHT22;5241;47.830;12.972;2023-02-02T14:08:59;4.50;99.90
10390;DHT22;5241;47.830;12.972;2023-02-02T14:11:34;4.50;99.90
10390;DHT22;5241;47.830;12.972;2023-02-02T14:14:13;4.50;99.90
10390;DHT22;5241;47.830;12.972;2023-02-02T14:17:47;4.50;99.90
10390;DHT22;5241;47.830;12.972;2023-02-02T14:19:57;4.50;99.90
10390;DHT22;5241;47.830;12.972;2023-02-02T14:22:39;4.60;99.90
10390;DHT22;5241;47.830;12.972;2023-02-02T14:28:03;4.60;99.90
10390;DHT22;5241;47.830;12.972;2023-02-02T14:30:32;4.60;99.90
10390;DHT22;5241;47.830;12.972;2023-02-02T14:33:37;4.60;99.90
10390;DHT22;5241;47.830;12.972;2023-02-02T14:36:04;4.60;99.90
10390;DHT22;5241;47.830;12.972;2023-02-02T14:38:50;4.60;99.90
10390;DHT22;5241;47.830;12.972;2023-02-02T14:41:28;4.50;99.90
10390;DHT22;5241;47.830;12.972;2023-02-02T14:44:14;4.60;99.90
10390;DHT22;5241;47.830;12.972;2023-02-02T14:46:40;4.50;99.90
10390;DHT22;5241;47.830;12.972;2023-02-02T14:49:15;4.50;99.90
10390;DHT22;5241;47.830;12.972;2023-02-02T14:51:51;4.50;99.90
10390;DHT22;5241;47.830;12.972;2023-02-02T14:54:24;4.50;99.90
10390;DHT22;5241;47.830;12.972;2023-02-02T14:57:01;4.50;99.90
10390;DHT22;5241;47.830;12.972;2023-02-02T14:59:38;4.50;99.90
10390;DHT22;5241;47.830;12.972;2023-02-02T15:02:24;4.50;99.90
10390;DHT22;5241;47.830;12.972;2023-02-02T15:08:21;4.50;99.90
10390;DHT22;5241;47.830;12.972;2023-02-02T15:13:21;4.50;99.90
10390;DHT22;5241;47.830;12.972;2023-02-02T15:15:50;4.50;99.90
10390;DHT22;5241;47.830;12.972;2023-02-02T15:18:39;4.50;99.90
10390;DHT22;5241;47.830;12.972;2023-02-02T15:21:07;4.50;99.90
10390;DHT22;5241;47.830;12.972;2023-02-02T15:23:43;4.40;99.90
10390;DHT22;5241;47.830;12.972;2023-02-02T15:26:24;4.40;99.90
10390;DHT22;5241;47.830;12.972;2023-02-02T15:28:53;4.40;99.90
10390;DHT22;5241;47.830;12.972;2023-02-02T15:31:41;4.30;99.90
10390;DHT22;5241;47.830;12.972;2023-02-02T15:34:14;4.30;99.90
10390;DHT22;5241;47.830;12.972;2023-02-02T15:36:43;4.30;99.90
10390;DHT22;5241;47.830;12.972;2023-02-02T15:39:29;4.30;99.90
10390;DHT22;5241;47.830;12.972;2023-02-02T15:41:56;4.20;99.90
10390;DHT22;5241;47.830;12.972;2023-02-02T15:44:42;4.20;99.90
10390;DHT22;5241;47.830;12.972;2023-02-02T15:47:13;4.20;99.90
10390;DHT22;5241;47.830;12.972;2023-02-02T15:49:40;4.20;99.90
10390;DHT22;5241;47.830;12.972;2023-02-02T15:52:30;4.20;99.90
10390;DHT22;5241;47.830;12.972;2023-02-02T15:55:00;4.20;99.90
10390;DHT22;5241;47.830;12.972;2023-02-02T15:57:34;4.20;99.90
10390;DHT22;5241;47.830;12.972;2023-02-02T16:02:47;4.20;99.90
10390;DHT22;5241;47.830;12.972;2023-02-02T16:07:59;4.20;99.90
10390;DHT22;5241;47.830;12.972;2023-02-02T16:10:25;4.20;99.90
10390;DHT22;5241;47.830;12.972;2023-02-02T16:12:51;4.20;99.90
10390;DHT22;5241;47.830;12.972;2023-02-02T16:15:22;4.10;99.90
10390;DHT22;5241;47.830;12.972;2023-02-02T16:18:09;4.10;99.90
10390;DHT22;5241;47.830;12.972;2023-02-02T16:20:38;4.10;99.90
10390;DHT22;5241;47.830;12.972;2023-02-02T16:23:08;4.10;99.90
10390;DHT22;5241;47.830;12.972;2023-02-02T16:25:45;4.10;99.90
10390;DHT22;5241;47.830;12.972;2023-02-02T16:28:13;4.10;99.90
10390;DHT22;5241;47.830;12.972;2023-02-02T16:30:39;4.10;99.90
10390;DHT22;5241;47.830;12.972;2023-02-02T16:36:23;4.10;99.90
10390;DHT22;5241;47.830;12.972;2023-02-02T16:38:50;4.00;99.90
10390;DHT22;5241;47.830;12.972;2023-02-02T16:44:36;4.00;99.90
10390;DHT22;5241;47.830;12.972;2023-02-02T16:47:06;4.00;99.90
10390;DHT22;5241;47.830;12.972;2023-02-02T16:49:33;4.00;99.90
10390;DHT22;5241;47.830;12.972;2023-02-02T16:52:10;4.00;99.90
10390;DHT22;5241;47.830;12.972;2023-02-02T16:54:42;4.00;99.90
10390;DHT22;5241;47.830;12.972;2023-02-02T16:57:25;4.00;99.90
10390;DHT22;5241;47.830;12.972;2023-02-02T16:59:54;4.00;99.90
10390;DHT22;5241;47.830;12.972;2023-02-02T17:02:39;4.00;99.90
10390;DHT22;5241;47.830;12.972;2023-02-02T17:05:24;4.00;99.90
10390;DHT22;5241;47.830;12.972;2023-02-02T17:07:59;4.00;99.90
10390;DHT22;5241;47.830;12.972;2023-02-02T17:10:34;4.10;99.90
10390;DHT22;5241;47.830;12.972;2023-02-02T17:13:01;4.00;99.90
10390;DHT22;5241;47.830;12.972;2023-02-02T17:15:31;4.10;99.90
10390;DHT22;5241;47.830;12.972;2023-02-02T17:17:57;4.10;99.90
10390;DHT22;5241;47.830;12.972;2023-02-02T17:20:23;4.10;99.90
10390;DHT22;5241;47.830;12.972;2023-02-02T17:23:04;4.10;99.90
10390;DHT22;5241;47.830;12.972;2023-02-02T17:25:37;4.20;99.90
10390;DHT22;5241;47.830;12.972;2023-02-02T17:28:10;4.10;99.90
10390;DHT22;5241;47.830;12.972;2023-02-02T17:30:38;4.10;99.90
10390;DHT22;5241;47.830;12.972;2023-02-02T17:33:07;4.10;99.90
10390;DHT22;5241;47.830;12.972;2023-02-02T17:35:33;4.10;99.90
10390;DHT22;5241;47.830;12.972;2023-02-02T17:37:59;4.10;99.90
10390;DHT22;5241;47.830;12.972;2023-02-02T17:40:25;4.10;99.90
10390;DHT22;5241;47.830;12.972;2023-02-02T17:42:52;4.10;99.90
10390;DHT22;5241;47.830;12.972;2023-02-02T17:47:47;4.10;99.90
10390;DHT22;5241;47.830;12.972;2023-02-02T17:50:13;4.10;99.90
10390;DHT22;5241;47.830;12.972;2023-02-02T17:52:38;4.10;99.90
10390;DHT22;5241;47.830;12.972;2023-02-02T17:57:44;4.10;99.90
10390;DHT22;5241;47.830;12.972;2023-02-02T18:00:10;4.20;99.90
10390;DHT22;5241;47.830;12.972;2023-02-02T18:02:36;4.20;99.90
10390;DHT22;5241;47.830;12.972;2023-02-02T18:05:02;4.20;99.90
10390;DHT22;5241;47.830;12.972;2023-02-02T18:07:29;4.20;99.90
10390;DHT22;5241;47.830;12.972;2023-02-02T18:09:54;4.30;99.90
10390;DHT22;5241;47.830;12.972;2023-02-02T18:12:20;4.30;99.90
10390;DHT22;5241;47.830;12.972;2023-02-02T18:14:45;4.30;99.90
10390;DHT22;5241;47.830;12.972;2023-02-02T18:17:11;4.30;99.90